createdAt,value
2022-10-11T00:00:12.164Z,99039.03
2022-10-11T00:03:00.263Z,99050.50
2022-10-11T00:05:28.087Z,99057.72
2022-10-11T00:07:55.013Z,99054.25
2022-10-11T00:10:22.217Z,99057.88
2022-10-11T00:12:49.713Z,99067.72
2022-10-11T00:15:20.172Z,99070.47
2022-10-11T00:17:47.765Z,99068.81
2022-10-11T00:20:14.772Z,99074.13
2022-10-11T00:22:42.777Z,99072.44
2022-10-11T00:25:12.486Z,99074.28
2022-10-11T00:27:39.907Z,99075.31
2022-10-11T00:30:08.305Z,99082.44
2022-10-11T00:32:37.811Z,99080.72
2022-10-11T00:35:07.248Z,99094.91
2022-10-11T00:37:36.610Z,99084.38
2022-10-11T00:40:12.988Z,99083.69
2022-10-11T00:42:40.726Z,99072.28
2022-10-11T00:45:26.531Z,99084.94
2022-10-11T00:47:57.063Z,99081.56
2022-10-11T00:50:25.294Z,99078.16
2022-10-11T00:53:09.964Z,99073.00
2022-10-11T00:55:47.551Z,99075.72
2022-10-11T00:58:15.008Z,99081.13
2022-10-11T01:00:42.074Z,99086.50
2022-10-11T01:03:08.964Z,99085.72
2022-10-11T01:05:39.873Z,99089.31
2022-10-11T01:08:08.534Z,99095.56
2022-10-11T01:10:35.673Z,99090.34
2022-10-11T01:13:50.146Z,99092.31
2022-10-11T01:16:44.230Z,99101.25
2022-10-11T01:20:19.311Z,99094.34
2022-10-11T01:23:20.349Z,99096.28
2022-10-11T01:26:09.327Z,99097.28
2022-10-11T01:28:46.770Z,99106.25
2022-10-11T01:31:43.940Z,99107.19
2022-10-11T01:34:25.731Z,99104.56
2022-10-11T01:37:22.558Z,99113.59
2022-10-11T01:40:05.223Z,99116.34
2022-10-11T01:42:34.153Z,99117.34
2022-10-11T01:45:00.976Z,99119.16
2022-10-11T01:47:27.932Z,99121.78
2022-10-11T01:50:01.464Z,99121.00
2022-10-11T01:52:36.509Z,99123.63
2022-10-11T01:55:13.391Z,99124.59
2022-10-11T01:57:49.020Z,99123.00
2022-10-11T02:00:22.884Z,99124.91
2022-10-11T02:03:33.970Z,99123.34
2022-10-11T02:06:39.884Z,99130.53
2022-10-11T02:09:20.537Z,99127.13
2022-10-11T02:11:47.713Z,99132.63
2022-10-11T02:14:30.734Z,99135.19
2022-10-11T02:17:07.594Z,99154.69
2022-10-11T02:19:45.633Z,99138.06
2022-10-11T02:22:24.672Z,99150.63
2022-10-11T02:24:57.859Z,99160.34
2022-10-11T02:27:30.599Z,99157.75
2022-10-11T02:30:02.371Z,99162.28
2022-10-11T02:32:32.357Z,99156.19
2022-10-11T02:35:02.781Z,99158.00
2022-10-11T02:37:56.767Z,99166.88
2022-10-11T02:40:35.244Z,99172.03
2022-10-11T02:43:17.583Z,99169.47
2022-10-11T02:45:55.948Z,99160.78
2022-10-11T02:48:25.236Z,99168.03
2022-10-11T02:50:56.092Z,99166.44
2022-10-11T02:53:25.420Z,99169.28
2022-10-11T02:55:54.812Z,99179.78
2022-10-11T02:58:23.370Z,99177.22
2022-10-11T03:00:50.966Z,99178.22
2022-10-11T03:03:17.924Z,99184.59
2022-10-11T03:05:45.064Z,99187.25
2022-10-11T03:08:14.832Z,99202.13
2022-10-11T03:10:42.502Z,99206.66
2022-10-11T03:13:09.653Z,99213.88
2022-10-11T03:15:36.739Z,99208.72
2022-10-11T03:18:03.997Z,99212.47
2022-10-11T03:20:31.124Z,99213.66
2022-10-11T03:22:57.990Z,99216.44
2022-10-11T03:25:24.867Z,99223.59
2022-10-11T03:27:52.330Z,99226.34
2022-10-11T03:30:20.162Z,99222.97
2022-10-11T03:32:47.057Z,99228.28
2022-10-11T03:35:14.513Z,99230.00
2022-10-11T03:37:41.400Z,99234.47
2022-10-11T03:40:13.517Z,99235.56
2022-10-11T03:42:41.127Z,99238.28
2022-10-11T03:45:09.872Z,99232.22
2022-10-11T03:47:40.498Z,99229.69
2022-10-11T03:50:09.630Z,99233.22
2022-10-11T03:52:36.995Z,99227.03
2022-10-11T03:55:04.788Z,99226.97
2022-10-11T03:57:31.926Z,99234.78
2022-10-11T03:59:58.718Z,99240.81
2022-10-11T04:02:25.663Z,99237.31
2022-10-11T04:04:52.670Z,99239.94
2022-10-11T04:07:19.535Z,99246.16
2022-10-11T04:09:46.519Z,99252.34
2022-10-11T04:12:13.478Z,99251.47
2022-10-11T04:14:40.718Z,99252.41
2022-10-11T04:17:07.643Z,99249.75
2022-10-11T04:19:37.197Z,99243.59
2022-10-11T04:22:07.664Z,99248.94
2022-10-11T04:24:34.456Z,99249.97
2022-10-11T04:27:01.489Z,99261.41
2022-10-11T04:29:32.412Z,99254.25
2022-10-11T04:32:00.113Z,99262.06
2022-10-11T04:34:27.253Z,99256.63
2022-10-11T04:36:54.205Z,99257.41
2022-10-11T04:39:21.284Z,99265.34
2022-10-11T04:41:48.384Z,99268.06
2022-10-11T04:44:15.201Z,99282.19
2022-10-11T04:46:42.110Z,99276.97
2022-10-11T04:49:09.447Z,99278.81
2022-10-11T04:51:36.343Z,99283.25
2022-10-11T04:54:04.129Z,99290.28
2022-10-11T04:56:31.374Z,99298.16
2022-10-11T04:58:58.207Z,99300.81
2022-10-11T05:01:25.028Z,99299.00
2022-10-11T05:03:52.273Z,99295.56
2022-10-11T05:06:19.862Z,99307.88
2022-10-11T05:08:46.729Z,99306.94
2022-10-11T05:11:16.943Z,99313.03
2022-10-11T05:13:45.713Z,99312.97
2022-10-11T05:16:14.218Z,99306.81
2022-10-11T05:18:41.564Z,99312.13
2022-10-11T05:21:39.073Z,99312.06
2022-10-11T05:24:07.015Z,99324.13
2022-10-11T05:26:34.138Z,99326.56
2022-10-11T05:29:01.175Z,99331.75
2022-10-11T05:31:28.340Z,99338.75
2022-10-11T05:33:55.596Z,99342.41
2022-10-11T05:36:22.498Z,99341.47
2022-10-11T05:38:49.543Z,99353.84
2022-10-11T05:41:17.475Z,99353.91
2022-10-11T05:43:44.845Z,99353.06
2022-10-11T05:46:12.577Z,99353.06
2022-10-11T05:48:40.108Z,99357.34
2022-10-11T05:51:10.399Z,99359.94
2022-10-11T05:53:39.305Z,99359.94
2022-10-11T05:56:19.480Z,99370.53
2022-10-11T05:58:46.745Z,99370.47
2022-10-11T06:01:28.309Z,99364.31
2022-10-11T06:03:55.996Z,99373.97
2022-10-11T06:06:23.016Z,99380.16
2022-10-11T06:08:50.351Z,99388.03
2022-10-11T06:11:27.463Z,99388.84
2022-10-11T06:13:57.976Z,99394.13
2022-10-11T06:16:26.086Z,99392.41
2022-10-11T06:18:54.732Z,99401.22
2022-10-11T06:21:22.184Z,99402.06
2022-10-11T06:23:58.280Z,99398.66
2022-10-11T06:26:28.203Z,99407.50
2022-10-11T06:28:55.395Z,99410.16
2022-10-11T06:31:22.498Z,99405.88
2022-10-11T06:33:49.574Z,99404.06
2022-10-11T06:36:17.380Z,99416.53
2022-10-11T06:38:45.360Z,99409.38
2022-10-11T06:41:24.962Z,99411.00
2022-10-11T06:43:52.383Z,99415.38
2022-10-11T06:46:22.049Z,99412.69
2022-10-11T06:48:50.176Z,99412.81
2022-10-11T06:51:21.033Z,99426.00
2022-10-11T06:53:57.852Z,99427.72
2022-10-11T06:56:27.904Z,99430.28
2022-10-11T06:58:56.755Z,99436.41
2022-10-11T07:01:24.671Z,99440.75
2022-10-11T07:03:54.110Z,99439.91
2022-10-11T07:06:25.336Z,99443.41
2022-10-11T07:08:53.686Z,99448.63
2022-10-11T07:11:27.596Z,99454.81
2022-10-11T07:14:05.806Z,99455.63
2022-10-11T07:16:32.738Z,99458.13
2022-10-11T07:19:02.752Z,99451.81
2022-10-11T07:21:32.447Z,99459.78
2022-10-11T07:24:00.173Z,99459.72
2022-10-11T07:26:31.345Z,99470.19
2022-10-11T07:29:00.931Z,99473.63
2022-10-11T07:31:28.137Z,99475.44
2022-10-11T07:33:55.084Z,99471.81
2022-10-11T07:36:25.516Z,99483.16
2022-10-11T07:38:52.672Z,99481.25
2022-10-11T07:41:20.365Z,99483.81
2022-10-11T07:43:49.605Z,99485.56
2022-10-11T07:46:18.338Z,99485.56
2022-10-11T07:48:45.438Z,99487.22
2022-10-11T07:51:20.461Z,99483.69
2022-10-11T07:53:55.437Z,99479.22
2022-10-11T07:56:26.691Z,99484.34
2022-10-11T07:59:05.410Z,99489.72
2022-10-11T08:01:33.229Z,99494.97
2022-10-11T08:04:00.528Z,99501.13
2022-10-11T08:06:32.476Z,99497.59
2022-10-11T08:09:01.441Z,99502.00
2022-10-11T08:11:35.977Z,99495.91
2022-10-11T08:14:08.652Z,99505.44
2022-10-11T08:16:38.123Z,99508.16
2022-10-11T08:19:07.352Z,99511.09
2022-10-11T08:21:34.861Z,99512.91
2022-10-11T08:24:05.061Z,99512.06
2022-10-11T08:26:33.609Z,99512.13
2022-10-11T08:29:05.138Z,99515.78
2022-10-11T08:31:34.888Z,99518.44
2022-10-11T08:34:02.816Z,99518.38
2022-10-11T08:36:29.648Z,99513.94
2022-10-11T08:38:57.089Z,99517.50
2022-10-11T08:41:54.526Z,99519.28
2022-10-11T08:45:10.033Z,99524.84
2022-10-11T08:47:45.340Z,99530.13
2022-10-11T08:50:23.728Z,99531.81
2022-10-11T08:53:04.843Z,99527.25
2022-10-11T08:55:40.930Z,99525.31
2022-10-11T08:58:17.153Z,99526.84
2022-10-11T09:00:50.147Z,99518.69
2022-10-11T09:03:22.950Z,99518.50
2022-10-11T09:06:25.193Z,99526.19
2022-10-11T09:09:42.518Z,99534.59
2022-10-11T09:12:14.642Z,99535.25
2022-10-11T09:15:12.296Z,99548.75
2022-10-11T09:18:11.297Z,99550.56
2022-10-11T09:21:02.133Z,99550.50
2022-10-11T09:23:59.540Z,99554.91
2022-10-11T09:26:33.148Z,99556.47
2022-10-11T09:29:17.176Z,99556.34
2022-10-11T09:31:53.621Z,99550.00
2022-10-11T09:34:26.429Z,99548.91
2022-10-11T09:37:24.667Z,99538.88
2022-10-11T09:40:10.829Z,99544.19
2022-10-11T09:42:37.577Z,99539.69
2022-10-11T09:45:25.194Z,99553.88
2022-10-11T09:47:57.136Z,99550.09
2022-10-11T09:50:26.464Z,99551.72
2022-10-11T09:53:03.546Z,99551.53
2022-10-11T09:55:41.553Z,99559.38
2022-10-11T09:58:34.226Z,99556.84
2022-10-11T10:04:13.135Z,99561.53
2022-10-11T10:06:41.235Z,99551.44
2022-10-11T10:09:30.390Z,99548.50
2022-10-11T10:11:58.279Z,99548.13
2022-10-11T10:14:30.792Z,99548.88
2022-10-11T10:17:14.530Z,99550.91
2022-10-11T10:19:55.305Z,99553.25
2022-10-11T10:22:29.568Z,99557.44
2022-10-11T10:25:00.117Z,99564.44
2022-10-11T10:27:30.553Z,99561.50
2022-10-11T10:30:16.783Z,99561.59
2022-10-11T10:33:03.009Z,99571.13
2022-10-11T10:36:03.360Z,99570.25
2022-10-11T10:38:52.202Z,99575.44
2022-10-11T10:41:19.751Z,99576.22
2022-10-11T10:43:58.577Z,99576.34
2022-10-11T10:47:16.670Z,99565.94
2022-10-11T10:49:54.726Z,99568.53
2022-10-11T10:52:37.072Z,99574.88
2022-10-11T10:55:40.209Z,99576.88
2022-10-11T10:58:31.922Z,99579.03
2022-10-11T11:01:13.768Z,99577.22
2022-10-11T11:03:53.483Z,99571.84
2022-10-11T11:06:41.590Z,99575.34
2022-10-11T11:09:43.577Z,99565.88
2022-10-11T11:12:27.964Z,99565.81
2022-10-11T11:15:29.232Z,99571.00
2022-10-11T11:18:41.200Z,99564.81
2022-10-11T11:21:39.133Z,99566.38
2022-10-11T11:24:15.027Z,99559.34
2022-10-11T11:27:04.863Z,99560.09
2022-10-11T11:30:14.360Z,99562.38
2022-10-11T11:33:21.117Z,99561.19
2022-10-11T11:35:56.417Z,99561.84
2022-10-11T11:38:40.846Z,99568.53
2022-10-11T11:41:27.835Z,99567.66
2022-10-11T11:44:11.358Z,99563.16
2022-10-11T11:46:52.603Z,99559.69
2022-10-11T11:49:32.157Z,99560.41
2022-10-11T11:52:00.622Z,99562.97
2022-10-11T11:54:48.004Z,99561.91
2022-10-11T11:57:46.037Z,99557.31
2022-10-11T12:00:20.709Z,99551.59
2022-10-11T12:03:00.716Z,99556.84
2022-10-11T12:05:36.025Z,99548.66
2022-10-11T12:08:26.683Z,99547.94
2022-10-11T12:11:02.487Z,99541.59
2022-10-11T12:13:40.887Z,99540.69
2022-10-11T12:16:14.585Z,99546.91
2022-10-11T12:18:57.161Z,99545.06
2022-10-11T12:21:35.154Z,99549.50
2022-10-11T12:24:23.036Z,99545.16
2022-10-11T12:26:56.031Z,99544.75
2022-10-11T12:29:51.122Z,99543.69
2022-10-11T12:32:27.806Z,99551.31
2022-10-11T12:35:40.039Z,99542.19
2022-10-11T12:38:28.592Z,99540.41
2022-10-11T12:41:03.248Z,99550.06
2022-10-11T12:43:36.329Z,99538.31
2022-10-11T12:46:28.270Z,99536.38
2022-10-11T12:49:32.346Z,99534.47
2022-10-11T12:52:22.935Z,99535.09
2022-10-11T12:55:13.517Z,99531.59
2022-10-11T12:58:07.549Z,99534.19
2022-10-11T13:00:40.457Z,99521.72
2022-10-11T13:04:07.223Z,99521.81
2022-10-11T13:06:44.259Z,99515.00
2022-10-11T13:09:11.383Z,99526.69
2022-10-11T13:11:52.570Z,99524.44
2022-10-11T13:14:24.768Z,99523.66
2022-10-11T13:17:04.000Z,99534.38
2022-10-11T13:19:35.645Z,99530.16
2022-10-11T13:22:15.698Z,99524.75
2022-10-11T13:24:43.781Z,99528.28
2022-10-11T13:27:22.149Z,99525.63
2022-10-11T13:29:53.026Z,99528.97
2022-10-11T13:32:28.306Z,99524.66
2022-10-11T13:35:06.872Z,99530.88
2022-10-11T13:37:45.876Z,99528.22
2022-10-11T13:40:21.063Z,99532.50
2022-10-11T13:42:49.550Z,99524.44
2022-10-11T13:45:24.835Z,99521.84
2022-10-11T13:47:54.257Z,99527.09
2022-10-11T13:50:31.878Z,99523.66
2022-10-11T13:53:11.478Z,99516.69
2022-10-11T13:55:59.532Z,99518.34
2022-10-11T13:58:35.350Z,99520.94
2022-10-11T14:01:16.611Z,99511.38
2022-10-11T14:03:54.795Z,99516.69
2022-10-11T14:06:22.416Z,99520.38
2022-10-11T14:08:56.371Z,99514.09
2022-10-11T14:11:37.753Z,99521.84
2022-10-11T14:14:37.635Z,99511.22
2022-10-11T14:17:19.442Z,99512.94
2022-10-11T14:20:07.262Z,99508.47
2022-10-11T14:22:37.371Z,99510.28
2022-10-11T14:25:04.730Z,99500.47
2022-10-11T14:27:32.241Z,99506.63
2022-10-11T14:30:25.206Z,99503.56
2022-10-11T14:32:51.133Z,99506.75
2022-10-11T14:35:23.703Z,99510.28
2022-10-11T14:37:51.335Z,99512.06
2022-10-11T14:40:25.977Z,99513.75
2022-10-11T14:42:53.704Z,99511.09
2022-10-11T14:45:21.462Z,99512.06
2022-10-11T14:47:48.965Z,99515.69
2022-10-11T14:50:28.336Z,99506.94
2022-10-11T14:52:55.525Z,99515.84
2022-10-11T14:55:23.511Z,99507.84
2022-10-11T14:57:50.680Z,99506.06
2022-10-11T15:00:26.396Z,99512.25
2022-10-11T15:02:55.198Z,99508.63
2022-10-11T15:05:29.801Z,99508.72
2022-10-11T15:08:00.246Z,99507.00
2022-10-11T15:10:35.915Z,99510.66
2022-10-11T15:13:05.212Z,99511.38
2022-10-11T15:15:35.396Z,99517.66
2022-10-11T15:18:05.016Z,99521.16
2022-10-11T15:20:40.113Z,99518.50
2022-10-11T15:23:10.026Z,99520.31
2022-10-11T15:25:40.418Z,99522.97
2022-10-11T15:28:11.329Z,99526.63
2022-10-11T15:30:41.578Z,99527.56
2022-10-11T15:33:09.072Z,99523.19
2022-10-11T15:35:36.207Z,99518.88
2022-10-11T15:38:03.930Z,99523.41
2022-10-11T15:40:37.004Z,99520.81
2022-10-11T15:43:04.596Z,99520.81
2022-10-11T15:45:31.763Z,99525.38
2022-10-11T15:47:59.268Z,99522.78
2022-10-11T15:50:34.470Z,99529.13
2022-10-11T15:53:07.868Z,99534.59
2022-10-11T15:55:39.282Z,99532.94
2022-10-11T15:58:29.146Z,99530.28
2022-10-11T16:01:00.531Z,99531.28
2022-10-11T16:03:30.453Z,99532.22
2022-10-11T16:06:04.614Z,99532.22
2022-10-11T16:08:33.517Z,99532.28
2022-10-11T16:11:01.464Z,99533.31
2022-10-11T16:13:28.595Z,99532.53
2022-10-11T16:15:55.597Z,99533.53
2022-10-11T16:18:22.757Z,99532.84
2022-10-11T16:20:52.474Z,99547.09
2022-10-11T16:23:22.299Z,99539.31
2022-10-11T16:26:01.926Z,99549.13
2022-10-11T16:28:30.909Z,99546.53
2022-10-11T16:30:58.098Z,99549.38
2022-10-11T16:33:25.758Z,99545.84
2022-10-11T16:35:53.026Z,99547.00
2022-10-11T16:38:20.389Z,99548.72
2022-10-11T16:40:47.504Z,99549.66
2022-10-11T16:43:14.630Z,99554.13
2022-10-11T16:45:41.492Z,99548.88
2022-10-11T16:48:08.541Z,99552.44
2022-10-11T16:50:39.508Z,99553.47
2022-10-11T16:53:06.861Z,99557.13
2022-10-11T16:55:33.867Z,99551.03
2022-10-11T16:58:00.825Z,99551.88
2022-10-11T17:00:27.950Z,99554.69
2022-10-11T17:02:55.017Z,99550.38
2022-10-11T17:05:22.084Z,99552.25
2022-10-11T17:07:49.054Z,99550.53
2022-10-11T17:10:16.059Z,99548.78
2022-10-11T17:12:46.549Z,99546.06
2022-10-11T17:15:17.205Z,99542.56
2022-10-11T17:17:44.186Z,99548.00
2022-10-11T17:20:11.444Z,99547.94
2022-10-11T17:22:38.621Z,99540.03
2022-10-11T17:25:07.150Z,99543.56
2022-10-11T17:27:34.213Z,99545.41
2022-10-11T17:30:01.386Z,99545.50
2022-10-11T17:32:28.473Z,99550.97
2022-10-11T17:34:55.445Z,99551.03
2022-10-11T17:37:22.477Z,99557.25
2022-10-11T17:39:49.550Z,99551.25
2022-10-11T17:42:17.720Z,99550.59
2022-10-11T17:44:45.268Z,99554.34
2022-10-11T17:47:13.478Z,99546.50
2022-10-11T17:49:40.673Z,99548.34
2022-10-11T17:52:07.574Z,99543.13
2022-10-11T17:54:35.830Z,99540.66
2022-10-11T17:57:03.503Z,99547.97
2022-10-11T17:59:32.295Z,99553.41
2022-10-11T18:01:59.734Z,99550.03
2022-10-11T18:04:30.301Z,99550.22
2022-10-11T18:06:57.644Z,99546.00
2022-10-11T18:09:24.944Z,99548.78
2022-10-11T18:11:51.910Z,99559.53
2022-10-11T18:14:19.531Z,99551.75
2022-10-11T18:16:46.663Z,99548.31
2022-10-11T18:19:14.316Z,99556.47
2022-10-11T18:21:42.192Z,99557.47
2022-10-11T18:24:15.907Z,99564.72
2022-10-11T18:26:45.972Z,99564.84
2022-10-11T18:29:13.517Z,99561.41
2022-10-11T18:31:41.549Z,99554.38
2022-10-11T18:34:10.917Z,99557.00
2022-10-11T18:36:39.219Z,99557.06
2022-10-11T18:39:11.501Z,99558.88
2022-10-11T18:41:42.330Z,99555.38
2022-10-11T18:44:14.081Z,99551.84
2022-10-11T18:46:42.881Z,99550.25
2022-10-11T18:49:11.742Z,99552.97
2022-10-11T18:51:42.128Z,99547.72
2022-10-11T18:54:15.444Z,99556.66
2022-10-11T18:56:46.001Z,99556.81
2022-10-11T18:59:13.341Z,99554.22
2022-10-11T19:01:44.671Z,99552.56
2022-10-11T19:04:16.061Z,99550.97
2022-10-11T19:06:48.025Z,99556.53
2022-10-11T19:09:22.417Z,99560.31
2022-10-11T19:11:55.358Z,99564.06
2022-10-11T19:14:28.742Z,99566.78
2022-10-11T19:16:58.080Z,99559.94
2022-10-11T19:19:29.831Z,99563.59
2022-10-11T19:21:57.689Z,99561.78
2022-10-11T19:24:28.942Z,99558.28
2022-10-11T19:27:02.352Z,99560.22
2022-10-11T19:29:31.762Z,99562.91
2022-10-11T19:32:03.004Z,99567.41
2022-10-11T19:34:32.691Z,99571.00
2022-10-11T19:37:01.298Z,99561.31
2022-10-11T19:39:29.614Z,99569.25
2022-10-11T19:41:56.832Z,99569.44
2022-10-11T19:44:23.752Z,99574.66
2022-10-11T19:46:52.339Z,99576.47
2022-10-11T19:49:23.909Z,99577.59
2022-10-11T19:51:51.836Z,99576.69
2022-10-11T19:54:18.968Z,99575.97
2022-10-11T19:56:45.907Z,99572.47
2022-10-11T19:59:14.680Z,99570.69
2022-10-11T20:01:45.508Z,99573.53
2022-10-11T20:04:39.630Z,99578.00
2022-10-11T20:07:02.187Z,99572.97
2022-10-11T20:09:30.937Z,99573.03
2022-10-11T20:11:59.333Z,99572.25
2022-10-11T20:14:26.890Z,99569.72
2022-10-11T20:16:54.004Z,99570.72
2022-10-11T20:19:25.017Z,99576.28
2022-10-11T20:21:53.574Z,99578.03
2022-10-11T20:24:21.711Z,99577.25
2022-10-11T20:26:48.770Z,99576.34
2022-10-11T20:29:20.732Z,99570.25
2022-10-11T20:31:48.155Z,99572.91
2022-10-11T20:34:15.519Z,99570.25
2022-10-11T20:36:48.222Z,99566.72
2022-10-11T20:39:18.010Z,99565.88
2022-10-11T20:41:45.424Z,99561.41
2022-10-11T20:44:15.920Z,99566.84
2022-10-11T20:46:43.032Z,99573.19
2022-10-11T20:49:12.449Z,99569.00
2022-10-11T20:51:41.932Z,99571.69
2022-10-11T20:54:10.263Z,99572.66
2022-10-11T20:56:38.707Z,99566.69
2022-10-11T20:59:06.927Z,99564.09
2022-10-11T21:01:43.322Z,99567.84
2022-10-11T21:04:19.211Z,99567.94
2022-10-11T21:06:48.206Z,99570.69
2022-10-11T21:09:17.064Z,99572.66
2022-10-11T21:11:44.312Z,99567.56
2022-10-11T21:14:11.770Z,99576.38
2022-10-11T21:16:38.664Z,99570.41
2022-10-11T21:19:06.347Z,99574.91
2022-10-11T21:21:33.313Z,99576.59
2022-10-11T21:24:02.241Z,99574.91
2022-10-11T21:26:30.948Z,99579.25
2022-10-11T21:29:04.035Z,99575.66
2022-10-11T21:31:34.030Z,99575.59
2022-10-11T21:34:02.703Z,99575.59
2022-10-11T21:36:29.782Z,99578.97
2022-10-11T21:38:57.075Z,99569.19
2022-10-11T21:41:26.905Z,99572.66
2022-10-11T21:43:54.232Z,99573.59
2022-10-11T21:46:47.939Z,99572.69
2022-10-11T21:49:16.971Z,99566.56
2022-10-11T21:51:45.213Z,99569.19
2022-10-11T21:54:12.425Z,99570.19
2022-10-11T21:56:39.377Z,99567.72
2022-10-11T21:59:09.467Z,99571.38
2022-10-11T22:01:41.155Z,99565.38
2022-10-11T22:04:12.100Z,99565.53
2022-10-11T22:06:41.190Z,99576.09
2022-10-11T22:09:24.434Z,99574.47
2022-10-11T22:11:58.208Z,99579.75
2022-10-11T22:14:31.683Z,99573.59
2022-10-11T22:17:02.385Z,99574.56
2022-10-11T22:19:33.707Z,99569.28
2022-10-11T22:22:02.820Z,99562.34
2022-10-11T22:24:33.953Z,99569.22
2022-10-11T22:27:13.072Z,99562.09
2022-10-11T22:29:40.137Z,99560.28
2022-10-11T22:32:07.430Z,99573.56
2022-10-11T22:34:34.232Z,99573.66
2022-10-11T22:37:01.334Z,99573.59
2022-10-11T22:39:29.766Z,99572.81
2022-10-11T22:41:56.641Z,99576.50
2022-10-11T22:44:24.860Z,99573.06
2022-10-11T22:46:51.883Z,99573.13
2022-10-11T22:49:18.646Z,99570.56
2022-10-11T22:51:45.515Z,99583.84
2022-10-11T22:54:12.551Z,99575.06
2022-10-11T22:56:39.425Z,99575.09
2022-10-11T22:59:06.871Z,99580.44
2022-10-11T23:01:33.986Z,99578.63
2022-10-11T23:04:00.997Z,99581.34
2022-10-11T23:06:27.920Z,99584.03
2022-10-11T23:08:55.003Z,99587.53
2022-10-11T23:11:21.959Z,99570.84
2022-10-11T23:13:48.716Z,99580.59
2022-10-11T23:16:16.070Z,99587.63
2022-10-11T23:18:43.015Z,99585.69
2022-10-11T23:21:10.465Z,99591.03
2022-10-11T23:23:40.008Z,99589.22
2022-10-11T23:26:12.388Z,99593.50
2022-10-11T23:28:40.747Z,99596.22
2022-10-11T23:31:13.416Z,99594.50
2022-10-11T23:33:41.145Z,99588.38
2022-10-11T23:36:19.642Z,99596.31
2022-10-11T23:38:58.114Z,99590.22
2022-10-11T23:41:28.910Z,99591.91
2022-10-11T23:43:56.367Z,99596.16
2022-10-11T23:46:23.724Z,99588.28
2022-10-11T23:48:51.085Z,99597.94
2022-10-11T23:51:18.296Z,99590.13
2022-10-11T23:53:45.226Z,99593.63
2022-10-11T23:56:12.198Z,99588.38
2022-10-11T23:58:39.633Z,99587.72
